Sunday, November 19, 2017, 10:25 AM GMT
Back to Local

CWIG, Ile Aux Grues, Que.

Location: , , Canada Lat: 47.067
Local Time: 10:25 AM GMT (10:25 GMT) Lon: -70.533
Time Zone: GMT Elev: 59 ft

Show me the last for .
Show Coded

Time T Td Feel RH Dir Speed Gust Alt SLP Vis Weather Sky Remarks
2017-11-19 10:00 - - - 0 30° 8 - - - 0 None
2017-11-19 09:00 - - - 0 20° 12 - - - 0 Peak wind: 20 mph (18 kts) from 30° at 22 min
2017-11-19 08:00 - - - 0 30° 16 - - - 0 Peak wind: 21 mph (19 kts) from 30° at 48 min
2017-11-19 07:00 - - - 0 30° 12 - - - 0 None
2017-11-19 06:00 - - - 0 30° 13 - - - 0 None
2017-11-19 05:00 - - - 0 30° 13 - - - 0 Peak wind: 19 mph (17 kts) from 30° at 08 min
2017-11-19 04:00 - - - 0 30° 16 - - - 0 Peak wind: 20 mph (18 kts) from 30° at 58 min
2017-11-19 03:00 - - - 0 30° 14 - - - 0 Peak wind: 20 mph (18 kts) from 40° at 28 min
2017-11-19 02:00 - - - 0 30° 15 - - - 0 Peak wind: 21 mph (19 kts) from 30° at 07 min
2017-11-19 01:00 - - - 0 30° 15 21 - - 0 Peak wind: 23 mph (20 kts) from 20° at 02 min
2017-11-19 00:00 - - - 0 30° 17 23 - - 0 Peak wind: 23 mph (20 kts) from 40° at 57 min
2017-11-18 23:00 - - - 0 30° 15 21 - - 0 Peak wind: 20 mph (18 kts) from 20° at 58 min
2017-11-18 22:00 - - - 0 30° 13 - - - 0 Peak wind: 20 mph (18 kts) from 40° at 06 min
2017-11-18 21:00 - - - 0 30° 15 - - - 0 Peak wind: 19 mph (17 kts) from 20° at 59 min
2017-11-18 20:00 - - - 0 10° 7 - - - 0 None
2017-11-18 19:00 - - - 0 360° 5 - - - 0 None
2017-11-18 18:00 - - - 0 270° 3 - - - 0 None
2017-11-18 17:00 - - - 0 200° 7 - - - 0 None
2017-11-18 16:00 - - - 0 200° 10 - - - 0 Peak wind: 19 mph (17 kts) from 190° at 02 min
2017-11-18 15:00 - - - 0 190° 14 - - - 0 None
2017-11-18 14:00 - - - 0 200° 13 - - - 0 Peak wind: 27 mph (24 kts) from 210° at 01 min
2017-11-18 13:00 - - - 0 200° 18 25 - - 0 Peak wind: 25 mph (22 kts) from 200° at 50 min
2017-11-18 12:00 - - - 0 190° 18 - - - 0 Peak wind: 25 mph (22 kts) from 200° at 38 min
2017-11-18 11:00 - - - 0 190° 16 22 - - 0 Peak wind: 23 mph (20 kts) from 210° at 22 min

Support USWX by starting your Amazon purchase here.